sensor_id;sensor_type;location;lat;lon;timestamp;P1;durP1;ratioP1;P2;durP2;ratioP2
22652;SDS011;11493;43.344;26.226;2023-04-15T00:02:16;2.33;;;1.40;;
22652;SDS011;11493;43.344;26.226;2023-04-15T00:04:45;26.50;;;23.70;;
22652;SDS011;11493;43.344;26.226;2023-04-15T00:07:12;38.13;;;31.70;;
22652;SDS011;11493;43.344;26.226;2023-04-15T00:09:40;29.85;;;23.85;;
22652;SDS011;11493;43.344;26.226;2023-04-15T00:12:08;15.38;;;10.90;;
22652;SDS011;11493;43.344;26.226;2023-04-15T00:14:36;12.02;;;6.95;;
22652;SDS011;11493;43.344;26.226;2023-04-15T00:17:03;2.42;;;1.23;;
22652;SDS011;11493;43.344;26.226;2023-04-15T00:19:30;1.73;;;0.93;;
22652;SDS011;11493;43.344;26.226;2023-04-15T00:21:58;3.17;;;0.90;;
22652;SDS011;11493;43.344;26.226;2023-04-15T00:24:25;7.40;;;0.90;;
22652;SDS011;11493;43.344;26.226;2023-04-15T00:26:53;5.43;;;1.48;;
22652;SDS011;11493;43.344;26.226;2023-04-15T00:29:20;2.65;;;1.08;;
22652;SDS011;11493;43.344;26.226;2023-04-15T00:31:47;1.52;;;1.00;;
22652;SDS011;11493;43.344;26.226;2023-04-15T00:34:14;2.63;;;1.00;;
22652;SDS011;11493;43.344;26.226;2023-04-15T00:36:41;1.40;;;0.90;;
22652;SDS011;11493;43.344;26.226;2023-04-15T00:39:09;2.40;;;1.05;;
22652;SDS011;11493;43.344;26.226;2023-04-15T00:41:36;7.85;;;1.15;;
22652;SDS011;11493;43.344;26.226;2023-04-15T00:44:05;3.88;;;1.17;;
22652;SDS011;11493;43.344;26.226;2023-04-15T00:46:34;7.47;;;1.50;;
22652;SDS011;11493;43.344;26.226;2023-04-15T00:49:05;2.80;;;1.13;;
22652;SDS011;11493;43.344;26.226;2023-04-15T00:51:33;3.83;;;1.05;;
22652;SDS011;11493;43.344;26.226;2023-04-15T00:54:02;2.83;;;1.17;;
22652;SDS011;11493;43.344;26.226;2023-04-15T00:56:30;3.40;;;1.95;;
22652;SDS011;11493;43.344;26.226;2023-04-15T00:59:04;8.13;;;2.60;;
22652;SDS011;11493;43.344;26.226;2023-04-15T01:01:33;13.70;;;7.68;;
22652;SDS011;11493;43.344;26.226;2023-04-15T01:04:02;30.40;;;24.83;;
22652;SDS011;11493;43.344;26.226;2023-04-15T01:06:29;9.02;;;5.60;;
22652;SDS011;11493;43.344;26.226;2023-04-15T01:08:58;7.65;;;4.80;;
22652;SDS011;11493;43.344;26.226;2023-04-15T01:11:26;12.48;;;8.75;;
22652;SDS011;11493;43.344;26.226;2023-04-15T01:13:54;15.65;;;9.70;;
22652;SDS011;11493;43.344;26.226;2023-04-15T01:16:23;10.10;;;7.57;;
22652;SDS011;11493;43.344;26.226;2023-04-15T01:18:50;16.88;;;8.65;;
22652;SDS011;11493;43.344;26.226;2023-04-15T01:21:17;2.80;;;2.00;;
22652;SDS011;11493;43.344;26.226;2023-04-15T01:23:45;1.67;;;1.02;;
22652;SDS011;11493;43.344;26.226;2023-04-15T01:26:14;3.92;;;1.30;;
22652;SDS011;11493;43.344;26.226;2023-04-15T01:28:44;8.13;;;1.70;;
22652;SDS011;11493;43.344;26.226;2023-04-15T01:31:11;8.70;;;2.30;;
22652;SDS011;11493;43.344;26.226;2023-04-15T01:33:40;8.07;;;2.10;;
22652;SDS011;11493;43.344;26.226;2023-04-15T01:36:08;7.00;;;2.53;;
22652;SDS011;11493;43.344;26.226;2023-04-15T01:38:36;3.92;;;2.03;;
22652;SDS011;11493;43.344;26.226;2023-04-15T01:41:04;6.05;;;1.98;;
22652;SDS011;11493;43.344;26.226;2023-04-15T01:43:36;5.20;;;1.63;;
22652;SDS011;11493;43.344;26.226;2023-04-15T01:46:03;2.95;;;1.50;;
22652;SDS011;11493;43.344;26.226;2023-04-15T01:48:30;4.38;;;1.80;;
22652;SDS011;11493;43.344;26.226;2023-04-15T01:50:58;6.18;;;2.20;;
22652;SDS011;11493;43.344;26.226;2023-04-15T01:53:25;7.35;;;2.53;;
22652;SDS011;11493;43.344;26.226;2023-04-15T01:55:52;6.15;;;1.88;;
22652;SDS011;11493;43.344;26.226;2023-04-15T01:58:18;5.45;;;2.13;;
22652;SDS011;11493;43.344;26.226;2023-04-15T02:00:46;3.20;;;1.80;;
22652;SDS011;11493;43.344;26.226;2023-04-15T02:03:13;4.60;;;2.10;;
22652;SDS011;11493;43.344;26.226;2023-04-15T02:05:40;3.40;;;1.98;;
22652;SDS011;11493;43.344;26.226;2023-04-15T02:08:09;3.00;;;1.50;;
22652;SDS011;11493;43.344;26.226;2023-04-15T02:10:37;5.18;;;1.65;;
22652;SDS011;11493;43.344;26.226;2023-04-15T02:13:04;5.20;;;2.90;;
22652;SDS011;11493;43.344;26.226;2023-04-15T02:15:31;6.65;;;5.28;;
22652;SDS011;11493;43.344;26.226;2023-04-15T02:17:58;7.82;;;7.13;;
22652;SDS011;11493;43.344;26.226;2023-04-15T02:20:27;9.93;;;8.27;;
22652;SDS011;11493;43.344;26.226;2023-04-15T02:22:56;7.30;;;3.10;;
22652;SDS011;11493;43.344;26.226;2023-04-15T02:25:23;4.63;;;1.48;;
22652;SDS011;11493;43.344;26.226;2023-04-15T02:27:50;3.20;;;1.58;;
22652;SDS011;11493;43.344;26.226;2023-04-15T02:30:17;2.85;;;0.95;;
22652;SDS011;11493;43.344;26.226;2023-04-15T02:32:45;2.75;;;1.10;;
22652;SDS011;11493;43.344;26.226;2023-04-15T02:35:12;4.28;;;1.10;;
22652;SDS011;11493;43.344;26.226;2023-04-15T02:37:39;8.55;;;1.23;;
22652;SDS011;11493;43.344;26.226;2023-04-15T02:40:10;1.65;;;0.90;;
22652;SDS011;11493;43.344;26.226;2023-04-15T02:42:38;2.67;;;1.10;;
22652;SDS011;11493;43.344;26.226;2023-04-15T02:45:08;1.27;;;1.10;;
22652;SDS011;11493;43.344;26.226;2023-04-15T02:47:38;4.20;;;1.85;;
22652;SDS011;11493;43.344;26.226;2023-04-15T02:50:09;6.70;;;1.05;;
22652;SDS011;11493;43.344;26.226;2023-04-15T02:52:40;1.90;;;1.23;;
22652;SDS011;11493;43.344;26.226;2023-04-15T02:55:08;7.13;;;1.50;;
22652;SDS011;11493;43.344;26.226;2023-04-15T02:57:36;2.63;;;1.17;;
22652;SDS011;11493;43.344;26.226;2023-04-15T03:00:06;4.97;;;1.58;;
22652;SDS011;11493;43.344;26.226;2023-04-15T03:02:37;6.13;;;1.95;;
22652;SDS011;11493;43.344;26.226;2023-04-15T03:05:05;4.95;;;2.70;;
22652;SDS011;11493;43.344;26.226;2023-04-15T03:07:32;5.88;;;2.78;;
22652;SDS011;11493;43.344;26.226;2023-04-15T03:10:01;4.60;;;3.97;;
22652;SDS011;11493;43.344;26.226;2023-04-15T03:12:28;8.68;;;4.03;;
22652;SDS011;11493;43.344;26.226;2023-04-15T03:14:56;5.22;;;4.18;;
22652;SDS011;11493;43.344;26.226;2023-04-15T03:17:31;7.55;;;4.32;;
22652;SDS011;11493;43.344;26.226;2023-04-15T03:20:00;11.25;;;5.72;;
22652;SDS011;11493;43.344;26.226;2023-04-15T03:22:28;15.55;;;9.02;;
22652;SDS011;11493;43.344;26.226;2023-04-15T03:24:55;24.52;;;13.32;;
22652;SDS011;11493;43.344;26.226;2023-04-15T03:27:22;15.30;;;7.05;;
22652;SDS011;11493;43.344;26.226;2023-04-15T03:29:51;16.77;;;13.57;;
22652;SDS011;11493;43.344;26.226;2023-04-15T03:32:19;12.23;;;9.13;;
22652;SDS011;11493;43.344;26.226;2023-04-15T03:34:47;9.80;;;5.15;;
22652;SDS011;11493;43.344;26.226;2023-04-15T03:37:14;5.63;;;4.18;;
22652;SDS011;11493;43.344;26.226;2023-04-15T03:39:41;10.82;;;5.25;;
22652;SDS011;11493;43.344;26.226;2023-04-15T03:42:08;10.52;;;5.82;;
22652;SDS011;11493;43.344;26.226;2023-04-15T03:44:35;10.80;;;7.22;;
22652;SDS011;11493;43.344;26.226;2023-04-15T03:47:02;11.32;;;5.82;;
22652;SDS011;11493;43.344;26.226;2023-04-15T03:49:29;11.50;;;6.32;;
22652;SDS011;11493;43.344;26.226;2023-04-15T03:51:56;13.80;;;7.78;;
22652;SDS011;11493;43.344;26.226;2023-04-15T03:54:23;16.73;;;7.15;;
22652;SDS011;11493;43.344;26.226;2023-04-15T03:56:50;9.90;;;7.40;;
22652;SDS011;11493;43.344;26.226;2023-04-15T03:59:17;12.25;;;9.13;;
22652;SDS011;11493;43.344;26.226;2023-04-15T04:01:44;11.82;;;9.52;;
22652;SDS011;11493;43.344;26.226;2023-04-15T04:04:11;15.60;;;9.45;;
22652;SDS011;11493;43.344;26.226;2023-04-15T04:06:38;9.35;;;8.40;;
22652;SDS011;11493;43.344;26.226;2023-04-15T04:09:05;12.48;;;7.68;;
22652;SDS011;11493;43.344;26.226;2023-04-15T04:11:32;8.20;;;5.78;;
22652;SDS011;11493;43.344;26.226;2023-04-15T04:13:59;13.50;;;7.10;;
22652;SDS011;11493;43.344;26.226;2023-04-15T04:16:26;9.40;;;6.32;;
22652;SDS011;11493;43.344;26.226;2023-04-15T04:18:54;10.63;;;6.55;;
22652;SDS011;11493;43.344;26.226;2023-04-15T04:21:20;5.50;;;4.57;;
22652;SDS011;11493;43.344;26.226;2023-04-15T04:23:47;5.50;;;4.85;;
22652;SDS011;11493;43.344;26.226;2023-04-15T04:26:15;7.35;;;6.22;;
22652;SDS011;11493;43.344;26.226;2023-04-15T04:28:42;8.00;;;6.97;;
22652;SDS011;11493;43.344;26.226;2023-04-15T04:31:09;11.60;;;7.22;;
22652;SDS011;11493;43.344;26.226;2023-04-15T04:33:36;13.25;;;9.18;;
22652;SDS011;11493;43.344;26.226;2023-04-15T04:36:03;40.80;;;21.73;;
22652;SDS011;11493;43.344;26.226;2023-04-15T04:38:31;42.22;;;24.75;;
22652;SDS011;11493;43.344;26.226;2023-04-15T04:40:58;22.90;;;14.88;;
22652;SDS011;11493;43.344;26.226;2023-04-15T04:43:25;26.58;;;14.77;;
22652;SDS011;11493;43.344;26.226;2023-04-15T04:45:54;24.50;;;15.60;;
22652;SDS011;11493;43.344;26.226;2023-04-15T04:48:21;23.52;;;16.95;;
22652;SDS011;11493;43.344;26.226;2023-04-15T04:50:48;26.08;;;16.15;;
22652;SDS011;11493;43.344;26.226;2023-04-15T04:53:15;32.05;;;19.73;;
22652;SDS011;11493;43.344;26.226;2023-04-15T04:55:43;29.70;;;19.02;;
22652;SDS011;11493;43.344;26.226;2023-04-15T04:58:10;24.60;;;16.58;;
22652;SDS011;11493;43.344;26.226;2023-04-15T05:00:38;25.98;;;14.80;;
22652;SDS011;11493;43.344;26.226;2023-04-15T05:03:06;21.23;;;15.10;;
22652;SDS011;11493;43.344;26.226;2023-04-15T05:05:33;19.02;;;14.27;;
22652;SDS011;11493;43.344;26.226;2023-04-15T05:08:02;16.65;;;12.13;;
22652;SDS011;11493;43.344;26.226;2023-04-15T05:10:30;14.40;;;10.65;;
22652;SDS011;11493;43.344;26.226;2023-04-15T05:12:57;11.25;;;8.48;;
22652;SDS011;11493;43.344;26.226;2023-04-15T05:15:24;10.10;;;7.38;;
22652;SDS011;11493;43.344;26.226;2023-04-15T05:17:51;10.30;;;6.75;;
22652;SDS011;11493;43.344;26.226;2023-04-15T05:20:18;5.30;;;4.80;;
22652;SDS011;11493;43.344;26.226;2023-04-15T05:22:45;8.07;;;5.28;;
22652;SDS011;11493;43.344;26.226;2023-04-15T05:25:13;8.23;;;5.82;;
22652;SDS011;11493;43.344;26.226;2023-04-15T05:27:40;7.55;;;6.00;;
22652;SDS011;11493;43.344;26.226;2023-04-15T05:30:07;8.25;;;6.35;;
22652;SDS011;11493;43.344;26.226;2023-04-15T05:32:36;10.07;;;7.13;;
22652;SDS011;11493;43.344;26.226;2023-04-15T05:35:04;9.00;;;5.57;;
22652;SDS011;11493;43.344;26.226;2023-04-15T05:37:31;6.35;;;3.80;;
22652;SDS011;11493;43.344;26.226;2023-04-15T05:39:58;5.22;;;3.95;;
22652;SDS011;11493;43.344;26.226;2023-04-15T05:42:26;6.35;;;3.05;;
22652;SDS011;11493;43.344;26.226;2023-04-15T05:44:53;9.15;;;3.42;;
22652;SDS011;11493;43.344;26.226;2023-04-15T05:47:20;2.92;;;2.35;;
22652;SDS011;11493;43.344;26.226;2023-04-15T05:49:48;6.80;;;2.47;;
22652;SDS011;11493;43.344;26.226;2023-04-15T05:52:15;7.15;;;2.35;;
22652;SDS011;11493;43.344;26.226;2023-04-15T05:54:42;4.90;;;3.65;;
22652;SDS011;11493;43.344;26.226;2023-04-15T05:57:09;6.55;;;5.03;;
22652;SDS011;11493;43.344;26.226;2023-04-15T05:59:37;8.85;;;6.47;;
22652;SDS011;11493;43.344;26.226;2023-04-15T06:02:04;17.92;;;8.20;;
22652;SDS011;11493;43.344;26.226;2023-04-15T06:04:31;9.25;;;5.50;;
22652;SDS011;11493;43.344;26.226;2023-04-15T06:06:59;8.45;;;6.15;;
22652;SDS011;11493;43.344;26.226;2023-04-15T06:09:26;7.28;;;3.75;;
22652;SDS011;11493;43.344;26.226;2023-04-15T06:11:54;4.43;;;1.42;;
22652;SDS011;11493;43.344;26.226;2023-04-15T06:14:22;2.28;;;1.65;;
22652;SDS011;11493;43.344;26.226;2023-04-15T06:16:49;8.55;;;2.60;;
22652;SDS011;11493;43.344;26.226;2023-04-15T06:19:17;4.88;;;2.10;;
22652;SDS011;11493;43.344;26.226;2023-04-15T06:21:44;7.03;;;1.98;;
22652;SDS011;11493;43.344;26.226;2023-04-15T06:24:12;3.70;;;2.10;;
22652;SDS011;11493;43.344;26.226;2023-04-15T06:26:39;5.30;;;4.28;;
22652;SDS011;11493;43.344;26.226;2023-04-15T06:29:06;6.45;;;5.90;;
22652;SDS011;11493;43.344;26.226;2023-04-15T06:31:33;5.72;;;3.25;;
22652;SDS011;11493;43.344;26.226;2023-04-15T06:34:00;8.30;;;5.00;;
22652;SDS011;11493;43.344;26.226;2023-04-15T06:36:27;18.00;;;11.43;;
22652;SDS011;11493;43.344;26.226;2023-04-15T06:38:54;8.15;;;5.65;;
22652;SDS011;11493;43.344;26.226;2023-04-15T06:41:22;6.00;;;5.45;;
22652;SDS011;11493;43.344;26.226;2023-04-15T06:43:49;5.40;;;3.50;;
22652;SDS011;11493;43.344;26.226;2023-04-15T06:46:17;3.28;;;2.80;;
22652;SDS011;11493;43.344;26.226;2023-04-15T06:48:44;8.75;;;4.68;;
22652;SDS011;11493;43.344;26.226;2023-04-15T06:51:11;7.18;;;3.25;;
22652;SDS011;11493;43.344;26.226;2023-04-15T06:53:38;7.72;;;3.80;;
22652;SDS011;11493;43.344;26.226;2023-04-15T06:56:07;5.95;;;4.88;;
22652;SDS011;11493;43.344;26.226;2023-04-15T06:58:35;11.05;;;6.15;;
22652;SDS011;11493;43.344;26.226;2023-04-15T07:01:02;7.65;;;6.47;;
22652;SDS011;11493;43.344;26.226;2023-04-15T07:03:29;6.50;;;3.88;;
22652;SDS011;11493;43.344;26.226;2023-04-15T07:05:58;6.07;;;4.00;;
22652;SDS011;11493;43.344;26.226;2023-04-15T07:08:26;5.15;;;4.40;;
22652;SDS011;11493;43.344;26.226;2023-04-15T07:10:53;9.15;;;7.45;;
22652;SDS011;11493;43.344;26.226;2023-04-15T07:13:20;12.45;;;7.60;;
22652;SDS011;11493;43.344;26.226;2023-04-15T07:15:47;8.00;;;4.05;;
22652;SDS011;11493;43.344;26.226;2023-04-15T07:18:14;2.88;;;2.60;;
22652;SDS011;11493;43.344;26.226;2023-04-15T07:20:42;23.98;;;18.20;;
22652;SDS011;11493;43.344;26.226;2023-04-15T07:23:09;11.35;;;5.63;;
22652;SDS011;11493;43.344;26.226;2023-04-15T07:25:36;10.27;;;5.65;;
22652;SDS011;11493;43.344;26.226;2023-04-15T07:28:03;6.78;;;3.55;;
22652;SDS011;11493;43.344;26.226;2023-04-15T07:30:30;11.25;;;8.98;;
22652;SDS011;11493;43.344;26.226;2023-04-15T07:32:57;10.13;;;6.47;;
22652;SDS011;11493;43.344;26.226;2023-04-15T07:35:24;4.18;;;1.95;;
22652;SDS011;11493;43.344;26.226;2023-04-15T07:37:52;4.47;;;2.20;;
22652;SDS011;11493;43.344;26.226;2023-04-15T07:40:19;1.95;;;1.30;;
22652;SDS011;11493;43.344;26.226;2023-04-15T07:42:46;6.25;;;0.70;;
22652;SDS011;11493;43.344;26.226;2023-04-15T07:45:15;4.20;;;0.95;;
22652;SDS011;11493;43.344;26.226;2023-04-15T07:47:42;3.40;;;0.82;;
22652;SDS011;11493;43.344;26.226;2023-04-15T07:50:09;7.15;;;1.50;;
22652;SDS011;11493;43.344;26.226;2023-04-15T07:52:39;6.80;;;1.80;;
22652;SDS011;11493;43.344;26.226;2023-04-15T07:55:06;4.45;;;0.75;;
22652;SDS011;11493;43.344;26.226;2023-04-15T07:57:35;2.72;;;0.93;;
22652;SDS011;11493;43.344;26.226;2023-04-15T08:00:03;1.30;;;0.63;;
22652;SDS011;11493;43.344;26.226;2023-04-15T08:02:38;2.03;;;0.85;;
22652;SDS011;11493;43.344;26.226;2023-04-15T08:05:06;4.40;;;0.90;;
22652;SDS011;11493;43.344;26.226;2023-04-15T08:07:33;3.03;;;1.00;;
22652;SDS011;11493;43.344;26.226;2023-04-15T08:10:02;5.25;;;1.45;;
22652;SDS011;11493;43.344;26.226;2023-04-15T08:12:29;4.20;;;0.95;;
22652;SDS011;11493;43.344;26.226;2023-04-15T08:14:57;3.42;;;1.08;;
22652;SDS011;11493;43.344;26.226;2023-04-15T08:17:24;6.78;;;1.52;;
22652;SDS011;11493;43.344;26.226;2023-04-15T08:19:51;3.55;;;1.33;;
22652;SDS011;11493;43.344;26.226;2023-04-15T08:22:19;3.92;;;1.30;;
22652;SDS011;11493;43.344;26.226;2023-04-15T08:24:47;3.53;;;0.80;;
22652;SDS011;11493;43.344;26.226;2023-04-15T08:27:14;1.27;;;0.80;;
22652;SDS011;11493;43.344;26.226;2023-04-15T08:29:41;1.85;;;0.80;;
22652;SDS011;11493;43.344;26.226;2023-04-15T08:32:08;3.88;;;0.75;;
22652;SDS011;11493;43.344;26.226;2023-04-15T08:34:36;2.72;;;0.80;;
22652;SDS011;11493;43.344;26.226;2023-04-15T08:37:04;5.43;;;0.90;;
22652;SDS011;11493;43.344;26.226;2023-04-15T08:39:31;3.65;;;0.80;;
22652;SDS011;11493;43.344;26.226;2023-04-15T08:42:02;4.82;;;0.85;;
22652;SDS011;11493;43.344;26.226;2023-04-15T08:44:33;4.63;;;0.80;;
22652;SDS011;11493;43.344;26.226;2023-04-15T08:47:02;5.25;;;0.80;;
22652;SDS011;11493;43.344;26.226;2023-04-15T08:49:34;2.70;;;0.93;;
22652;SDS011;11493;43.344;26.226;2023-04-15T08:52:04;2.50;;;1.58;;
22652;SDS011;11493;43.344;26.226;2023-04-15T08:54:32;2.72;;;0.70;;
22652;SDS011;11493;43.344;26.226;2023-04-15T08:57:00;2.88;;;0.85;;
22652;SDS011;11493;43.344;26.226;2023-04-15T08:59:31;1.75;;;0.70;;
22652;SDS011;11493;43.344;26.226;2023-04-15T09:01:58;5.18;;;4.13;;
22652;SDS011;11493;43.344;26.226;2023-04-15T09:04:25;3.00;;;1.17;;
22652;SDS011;11493;43.344;26.226;2023-04-15T09:06:54;3.42;;;0.77;;
22652;SDS011;11493;43.344;26.226;2023-04-15T09:09:21;4.07;;;0.80;;
22652;SDS011;11493;43.344;26.226;2023-04-15T09:11:48;1.60;;;0.52;;
22652;SDS011;11493;43.344;26.226;2023-04-15T09:14:16;2.83;;;0.88;;
22652;SDS011;11493;43.344;26.226;2023-04-15T09:16:59;1.67;;;0.75;;
22652;SDS011;11493;43.344;26.226;2023-04-15T09:19:27;1.40;;;0.77;;
22652;SDS011;11493;43.344;26.226;2023-04-15T09:21:56;1.25;;;0.60;;
22652;SDS011;11493;43.344;26.226;2023-04-15T09:24:25;1.77;;;0.60;;
22652;SDS011;11493;43.344;26.226;2023-04-15T09:27:03;2.75;;;0.60;;
22652;SDS011;11493;43.344;26.226;2023-04-15T09:29:30;0.70;;;0.50;;
22652;SDS011;11493;43.344;26.226;2023-04-15T09:32:08;5.22;;;0.50;;
22652;SDS011;11493;43.344;26.226;2023-04-15T09:34:39;1.95;;;0.60;;
22652;SDS011;11493;43.344;26.226;2023-04-15T09:37:06;0.73;;;0.70;;
22652;SDS011;11493;43.344;26.226;2023-04-15T09:39:46;1.25;;;0.60;;
22652;SDS011;11493;43.344;26.226;2023-04-15T09:42:14;0.93;;;0.60;;
22652;SDS011;11493;43.344;26.226;2023-04-15T09:44:43;1.23;;;0.60;;
22652;SDS011;11493;43.344;26.226;2023-04-15T09:47:23;1.48;;;0.52;;
22652;SDS011;11493;43.344;26.226;2023-04-15T09:49:57;1.63;;;0.80;;
22652;SDS011;11493;43.344;26.226;2023-04-15T09:52:25;2.72;;;0.98;;
22652;SDS011;11493;43.344;26.226;2023-04-15T09:54:53;1.25;;;0.70;;
22652;SDS011;11493;43.344;26.226;2023-04-15T09:57:24;1.60;;;0.60;;
22652;SDS011;11493;43.344;26.226;2023-04-15T09:59:58;2.45;;;0.50;;
22652;SDS011;11493;43.344;26.226;2023-04-15T10:02:26;4.63;;;0.70;;
22652;SDS011;11493;43.344;26.226;2023-04-15T10:04:55;2.10;;;0.60;;
22652;SDS011;11493;43.344;26.226;2023-04-15T10:07:23;1.40;;;0.70;;
22652;SDS011;11493;43.344;26.226;2023-04-15T10:09:51;1.42;;;0.68;;
22652;SDS011;11493;43.344;26.226;2023-04-15T10:12:19;2.80;;;0.60;;
22652;SDS011;11493;43.344;26.226;2023-04-15T10:14:48;1.02;;;0.68;;
22652;SDS011;11493;43.344;26.226;2023-04-15T10:17:21;9.00;;;4.50;;
22652;SDS011;11493;43.344;26.226;2023-04-15T10:19:49;2.30;;;0.68;;
22652;SDS011;11493;43.344;26.226;2023-04-15T10:22:20;2.87;;;0.80;;
22652;SDS011;11493;43.344;26.226;2023-04-15T10:24:49;4.38;;;0.70;;
22652;SDS011;11493;43.344;26.226;2023-04-15T10:27:16;0.80;;;0.55;;
22652;SDS011;11493;43.344;26.226;2023-04-15T10:29:44;1.42;;;0.60;;
22652;SDS011;11493;43.344;26.226;2023-04-15T10:32:12;0.95;;;0.47;;
22652;SDS011;11493;43.344;26.226;2023-04-15T10:34:40;4.57;;;0.60;;
22652;SDS011;11493;43.344;26.226;2023-04-15T10:37:08;1.50;;;0.77;;
22652;SDS011;11493;43.344;26.226;2023-04-15T10:39:40;1.90;;;0.82;;
22652;SDS011;11493;43.344;26.226;2023-04-15T10:44:36;4.00;;;0.65;;
22652;SDS011;11493;43.344;26.226;2023-04-15T10:47:23;4.85;;;1.10;;
22652;SDS011;11493;43.344;26.226;2023-04-15T10:49:51;1.85;;;0.80;;
22652;SDS011;11493;43.344;26.226;2023-04-15T10:52:24;1.42;;;0.70;;
22652;SDS011;11493;43.344;26.226;2023-04-15T10:55:02;1.70;;;0.70;;
22652;SDS011;11493;43.344;26.226;2023-04-15T10:57:44;3.38;;;1.60;;
22652;SDS011;11493;43.344;26.226;2023-04-15T11:05:14;1.08;;;0.60;;
22652;SDS011;11493;43.344;26.226;2023-04-15T11:12:55;2.22;;;1.00;;
22652;SDS011;11493;43.344;26.226;2023-04-15T11:15:28;2.63;;;0.80;;
22652;SDS011;11493;43.344;26.226;2023-04-15T11:20:39;1.80;;;0.70;;
22652;SDS011;11493;43.344;26.226;2023-04-15T11:23:08;1.92;;;0.93;;
22652;SDS011;11493;43.344;26.226;2023-04-15T11:25:41;2.90;;;0.80;;
22652;SDS011;11493;43.344;26.226;2023-04-15T11:28:09;1.70;;;0.80;;
22652;SDS011;11493;43.344;26.226;2023-04-15T11:30:38;2.60;;;0.90;;
22652;SDS011;11493;43.344;26.226;2023-04-15T11:33:07;3.60;;;0.80;;
22652;SDS011;11493;43.344;26.226;2023-04-15T11:35:35;4.20;;;0.77;;
22652;SDS011;11493;43.344;26.226;2023-04-15T11:38:02;2.47;;;0.60;;
22652;SDS011;11493;43.344;26.226;2023-04-15T11:40:30;2.83;;;0.60;;
22652;SDS011;11493;43.344;26.226;2023-04-15T11:45:30;2.47;;;0.60;;
22652;SDS011;11493;43.344;26.226;2023-04-15T11:48:06;0.50;;;0.50;;
22652;SDS011;11493;43.344;26.226;2023-04-15T11:50:35;2.15;;;0.60;;
22652;SDS011;11493;43.344;26.226;2023-04-15T11:53:04;1.10;;;0.52;;
22652;SDS011;11493;43.344;26.226;2023-04-15T11:55:44;1.13;;;0.73;;
22652;SDS011;11493;43.344;26.226;2023-04-15T11:58:17;0.80;;;0.50;;
22652;SDS011;11493;43.344;26.226;2023-04-15T12:00:53;3.22;;;0.88;;
22652;SDS011;11493;43.344;26.226;2023-04-15T12:11:19;3.25;;;1.13;;
22652;SDS011;11493;43.344;26.226;2023-04-15T12:13:54;2.20;;;0.60;;
22652;SDS011;11493;43.344;26.226;2023-04-15T12:16:28;1.77;;;0.77;;
22652;SDS011;11493;43.344;26.226;2023-04-15T12:18:57;0.77;;;0.60;;
22652;SDS011;11493;43.344;26.226;2023-04-15T12:21:26;1.05;;;0.60;;
22652;SDS011;11493;43.344;26.226;2023-04-15T12:23:55;1.70;;;0.60;;
22652;SDS011;11493;43.344;26.226;2023-04-15T12:26:27;2.95;;;0.80;;
22652;SDS011;11493;43.344;26.226;2023-04-15T12:29:06;0.52;;;0.52;;
22652;SDS011;11493;43.344;26.226;2023-04-15T12:31:34;2.05;;;0.88;;
22652;SDS011;11493;43.344;26.226;2023-04-15T12:34:06;2.92;;;0.50;;
22652;SDS011;11493;43.344;26.226;2023-04-15T12:36:34;1.05;;;0.80;;
22652;SDS011;11493;43.344;26.226;2023-04-15T12:39:04;7.07;;;0.80;;
22652;SDS011;11493;43.344;26.226;2023-04-15T12:41:31;1.05;;;0.50;;
22652;SDS011;11493;43.344;26.226;2023-04-15T12:43:59;2.00;;;0.55;;
22652;SDS011;11493;43.344;26.226;2023-04-15T12:46:26;2.40;;;0.50;;
22652;SDS011;11493;43.344;26.226;2023-04-15T12:48:54;1.75;;;0.60;;
22652;SDS011;11493;43.344;26.226;2023-04-15T12:51:21;0.82;;;0.60;;
22652;SDS011;11493;43.344;26.226;2023-04-15T12:53:48;1.17;;;0.43;;
22652;SDS011;11493;43.344;26.226;2023-04-15T12:56:16;2.38;;;0.60;;
22652;SDS011;11493;43.344;26.226;2023-04-15T12:58:44;2.63;;;0.68;;
22652;SDS011;11493;43.344;26.226;2023-04-15T13:01:11;3.65;;;0.70;;
22652;SDS011;11493;43.344;26.226;2023-04-15T13:03:38;3.35;;;0.85;;
22652;SDS011;11493;43.344;26.226;2023-04-15T13:06:06;3.17;;;0.63;;
22652;SDS011;11493;43.344;26.226;2023-04-15T13:08:33;4.32;;;0.80;;
22652;SDS011;11493;43.344;26.226;2023-04-15T13:11:05;1.00;;;0.57;;
22652;SDS011;11493;43.344;26.226;2023-04-15T13:13:32;3.00;;;1.13;;
22652;SDS011;11493;43.344;26.226;2023-04-15T13:15:59;2.25;;;0.90;;
22652;SDS011;11493;43.344;26.226;2023-04-15T13:18:30;2.10;;;1.13;;
22652;SDS011;11493;43.344;26.226;2023-04-15T13:20:56;1.83;;;1.13;;
22652;SDS011;11493;43.344;26.226;2023-04-15T13:23:24;3.30;;;0.70;;
22652;SDS011;11493;43.344;26.226;2023-04-15T13:25:50;3.67;;;0.63;;
22652;SDS011;11493;43.344;26.226;2023-04-15T13:28:18;2.58;;;0.73;;
22652;SDS011;11493;43.344;26.226;2023-04-15T13:30:44;2.40;;;0.80;;
22652;SDS011;11493;43.344;26.226;2023-04-15T13:33:12;1.88;;;0.93;;
22652;SDS011;11493;43.344;26.226;2023-04-15T13:35:39;3.45;;;1.00;;
22652;SDS011;11493;43.344;26.226;2023-04-15T13:38:06;2.20;;;1.20;;
22652;SDS011;11493;43.344;26.226;2023-04-15T13:40:33;5.20;;;0.70;;
22652;SDS011;11493;43.344;26.226;2023-04-15T13:43:01;2.72;;;0.75;;
22652;SDS011;11493;43.344;26.226;2023-04-15T13:45:28;2.05;;;1.02;;
22652;SDS011;11493;43.344;26.226;2023-04-15T13:47:56;3.45;;;0.63;;
22652;SDS011;11493;43.344;26.226;2023-04-15T13:50:23;5.13;;;0.80;;
22652;SDS011;11493;43.344;26.226;2023-04-15T13:52:50;3.03;;;0.80;;
22652;SDS011;11493;43.344;26.226;2023-04-15T13:55:17;1.58;;;0.68;;
22652;SDS011;11493;43.344;26.226;2023-04-15T13:57:48;6.00;;;0.98;;
22652;SDS011;11493;43.344;26.226;2023-04-15T14:00:16;3.53;;;0.60;;
22652;SDS011;11493;43.344;26.226;2023-04-15T14:02:43;1.27;;;0.50;;
22652;SDS011;11493;43.344;26.226;2023-04-15T14:05:11;4.20;;;0.68;;
22652;SDS011;11493;43.344;26.226;2023-04-15T14:07:38;2.03;;;0.90;;
22652;SDS011;11493;43.344;26.226;2023-04-15T14:10:06;3.65;;;0.80;;
22652;SDS011;11493;43.344;26.226;2023-04-15T14:12:34;5.95;;;0.80;;
22652;SDS011;11493;43.344;26.226;2023-04-15T14:15:01;4.32;;;1.35;;
22652;SDS011;11493;43.344;26.226;2023-04-15T14:17:28;2.50;;;0.95;;
22652;SDS011;11493;43.344;26.226;2023-04-15T14:19:56;3.38;;;1.40;;
22652;SDS011;11493;43.344;26.226;2023-04-15T14:22:23;2.92;;;0.75;;
22652;SDS011;11493;43.344;26.226;2023-04-15T14:24:50;2.92;;;1.17;;
22652;SDS011;11493;43.344;26.226;2023-04-15T14:27:19;2.70;;;1.48;;
22652;SDS011;11493;43.344;26.226;2023-04-15T14:29:46;3.28;;;0.70;;
22652;SDS011;11493;43.344;26.226;2023-04-15T14:32:13;1.80;;;0.70;;
22652;SDS011;11493;43.344;26.226;2023-04-15T14:34:42;2.13;;;0.68;;
22652;SDS011;11493;43.344;26.226;2023-04-15T14:37:11;1.40;;;0.80;;
22652;SDS011;11493;43.344;26.226;2023-04-15T14:39:38;2.38;;;0.90;;
22652;SDS011;11493;43.344;26.226;2023-04-15T14:42:05;5.40;;;0.70;;
22652;SDS011;11493;43.344;26.226;2023-04-15T14:44:32;2.60;;;1.20;;
22652;SDS011;11493;43.344;26.226;2023-04-15T14:46:59;6.53;;;1.13;;
22652;SDS011;11493;43.344;26.226;2023-04-15T14:49:26;2.65;;;0.80;;
22652;SDS011;11493;43.344;26.226;2023-04-15T14:51:54;3.25;;;0.80;;
22652;SDS011;11493;43.344;26.226;2023-04-15T14:54:21;2.85;;;0.93;;
22652;SDS011;11493;43.344;26.226;2023-04-15T14:56:48;6.13;;;2.30;;
22652;SDS011;11493;43.344;26.226;2023-04-15T14:59:15;4.32;;;1.02;;
22652;SDS011;11493;43.344;26.226;2023-04-15T15:01:42;6.05;;;1.17;;
22652;SDS011;11493;43.344;26.226;2023-04-15T15:04:09;3.75;;;1.45;;